Time;durP1;ratioP1;P1;durP2;ratioP2;P2;SDS_P1;SDS_P2;PMS_P1;PMS_P2;Temp;Humidity;BMP_temperature;BMP_pressure;BME280_temperature;BME280_humidity;BME280_pressure;Samples;Min_cycle;Max_cycle;Signal;HPM_P1;HPM_P2
2021/07/02 00:00:56;;;;;;;16.80;9.93;;;16.20;99.90;;;;;;5077133;28;20178;-92
2021/07/02 00:03:22;;;;;;;12.07;7.90;;;16.20;99.90;;;;;;5078219;28;20166;-91
2021/07/02 00:05:47;;;;;;;15.63;8.50;;;16.20;99.90;;;;;;5078288;28;20173;-91
2021/07/02 00:08:13;;;;;;;10.80;8.00;;;16.10;99.90;;;;;;5078582;28;20304;-91
2021/07/02 00:10:39;;;;;;;13.27;8.65;;;16.10;99.90;;;;;;5076926;28;20638;-92
2021/07/02 00:13:04;;;;;;;16.10;8.82;;;16.20;99.90;;;;;;5094576;28;20158;-90
2021/07/02 00:15:30;;;;;;;14.60;9.68;;;16.20;99.90;;;;;;5076849;28;20170;-91
2021/07/02 00:17:56;;;;;;;15.73;10.02;;;16.10;99.90;;;;;;5080157;28;20694;-90
2021/07/02 00:20:21;;;;;;;18.67;9.45;;;16.00;99.90;;;;;;5098491;28;20170;-92
2021/07/02 00:22:47;;;;;;;17.65;9.73;;;16.10;99.90;;;;;;5080583;28;20173;-92
2021/07/02 00:25:13;;;;;;;17.42;10.07;;;16.10;99.90;;;;;;5080809;28;20170;-92
2021/07/02 00:27:39;;;;;;;14.45;9.25;;;16.10;99.90;;;;;;5080240;28;20170;-91
2021/07/02 00:30:06;;;;;;;17.08;10.75;;;16.10;99.90;;;;;;5063735;28;20205;-92
2021/07/02 00:32:31;;;;;;;18.08;10.57;;;16.10;99.90;;;;;;5080315;28;20693;-91
2021/07/02 00:34:57;;;;;;;16.60;9.75;;;16.20;99.90;;;;;;5063874;28;20182;-92
2021/07/02 00:37:23;;;;;;;14.13;9.50;;;16.20;99.90;;;;;;5063796;28;20618;-92
2021/07/02 00:39:48;;;;;;;17.95;9.48;;;16.30;99.90;;;;;;5063879;28;20174;-92
2021/07/02 00:42:14;;;;;;;16.58;9.63;;;16.40;99.90;;;;;;5080132;28;20253;-92
2021/07/02 00:44:45;;;;;;;13.32;10.30;;;16.40;99.90;;;;;;5080518;28;20645;-92
2021/07/02 00:47:12;;;;;;;13.82;8.80;;;16.40;99.90;;;;;;5079733;28;20170;-92
2021/07/02 00:49:38;;;;;;;10.75;9.02;;;16.30;99.90;;;;;;5079340;28;20197;-92
2021/07/02 00:52:08;;;;;;;10.75;8.95;;;16.30;99.90;;;;;;5098254;28;20173;-92
2021/07/02 00:54:35;;;;;;;13.25;9.20;;;16.20;99.90;;;;;;5080387;28;20194;-93
2021/07/02 00:57:03;;;;;;;19.08;10.02;;;16.20;99.90;;;;;;5098104;28;20308;-93
2021/07/02 00:59:30;;;;;;;20.65;9.60;;;16.20;99.90;;;;;;5080030;28;20177;-93
2021/07/02 01:01:55;;;;;;;16.25;9.48;;;16.20;99.90;;;;;;5063185;28;20201;-92
2021/07/02 01:04:23;;;;;;;22.00;8.73;;;16.10;99.90;;;;;;5097954;28;20223;-92
2021/07/02 01:06:51;;;;;;;14.73;9.02;;;16.10;99.90;;;;;;5080432;28;20189;-93
2021/07/02 01:09:18;;;;;;;12.98;9.15;;;16.20;99.90;;;;;;5079567;28;20208;-93
2021/07/02 01:11:43;;;;;;;17.15;9.13;;;16.20;99.90;;;;;;5059960;28;20661;-92
2021/07/02 01:14:09;;;;;;;14.80;9.25;;;16.20;99.90;;;;;;5060322;28;20175;-93
2021/07/02 01:16:38;;;;;;;20.02;10.20;;;16.30;99.90;;;;;;5059631;28;20224;-91
2021/07/02 01:19:03;;;;;;;16.63;9.98;;;16.30;99.90;;;;;;5077900;28;20596;-93
2021/07/02 01:21:29;;;;;;;17.40;10.02;;;16.30;99.90;;;;;;5076184;28;20174;-92
2021/07/02 01:23:54;;;;;;;20.35;10.60;;;16.40;99.90;;;;;;5098110;28;20162;-92
2021/07/02 01:26:21;;;;;;;15.63;11.00;;;16.50;99.90;;;;;;5069759;28;20643;-92
2021/07/02 01:28:47;;;;;;;16.65;10.27;;;16.50;99.90;;;;;;5059282;28;20597;-92
2021/07/02 01:31:13;;;;;;;14.63;10.00;;;16.60;99.90;;;;;;5090946;28;20185;-92
2021/07/02 01:33:38;;;;;;;11.30;9.25;;;16.60;99.90;;;;;;5079433;28;20200;-92
2021/07/02 01:36:25;;;;;;;14.25;8.43;;;16.60;99.90;;;;;;5097120;28;20166;-92
2021/07/02 01:38:51;;;;;;;21.88;9.85;;;16.60;99.90;;;;;;5079506;28;20215;-92
2021/07/02 01:41:17;;;;;;;23.58;9.40;;;16.60;99.90;;;;;;5079683;28;20637;-92
2021/07/02 01:43:43;;;;;;;14.77;9.68;;;16.50;99.90;;;;;;5097482;28;20252;-92
2021/07/02 01:46:08;;;;;;;19.30;9.07;;;16.60;99.90;;;;;;5079580;28;20173;-92
2021/07/02 01:48:34;;;;;;;18.65;10.15;;;16.60;99.90;;;;;;5078621;28;20196;-92
2021/07/02 01:51:00;;;;;;;12.10;8.75;;;16.60;99.90;;;;;;5075174;28;20217;-92
2021/07/02 01:53:26;;;;;;;18.17;9.85;;;16.60;99.90;;;;;;5076961;28;20170;-90
2021/07/02 01:55:52;;;;;;;16.70;9.05;;;16.60;99.90;;;;;;5059287;28;20186;-92
2021/07/02 01:58:18;;;;;;;11.73;9.15;;;16.50;99.90;;;;;;5058693;28;20269;-92
2021/07/02 02:00:44;;;;;;;15.90;9.45;;;16.50;99.90;;;;;;5067949;28;20239;-91
2021/07/02 02:03:10;;;;;;;19.75;9.30;;;16.50;99.90;;;;;;5079133;28;20204;-92
2021/07/02 02:05:36;;;;;;;15.30;9.23;;;16.50;99.90;;;;;;5096803;28;20184;-92
2021/07/02 02:08:02;;;;;;;14.20;9.65;;;16.50;99.90;;;;;;5078647;28;20580;-92
2021/07/02 02:10:27;;;;;;;19.00;10.38;;;16.50;99.90;;;;;;5078594;28;20193;-91
2021/07/02 02:12:53;;;;;;;10.70;8.50;;;16.50;99.90;;;;;;5078403;28;20198;-91
2021/07/02 02:15:19;;;;;;;12.80;9.02;;;16.60;99.90;;;;;;5078787;28;20166;-92
2021/07/02 02:17:44;;;;;;;33.20;10.68;;;16.50;99.90;;;;;;5061925;28;20617;-91
2021/07/02 02:20:11;;;;;;;21.00;9.50;;;16.50;99.90;;;;;;5062159;28;20688;-91
2021/07/02 02:22:38;;;;;;;20.15;9.48;;;16.40;99.90;;;;;;5063225;28;20171;-92
2021/07/02 02:25:05;;;;;;;16.50;8.85;;;16.40;99.90;;;;;;5042140;28;20579;-91
2021/07/02 02:27:31;;;;;;;14.98;9.13;;;16.50;99.90;;;;;;5058366;28;20569;-91
2021/07/02 02:29:57;;;;;;;20.45;9.25;;;16.50;99.90;;;;;;5058220;28;20229;-91
2021/07/02 02:32:23;;;;;;;15.75;9.60;;;16.40;99.90;;;;;;5058080;28;20635;-91
2021/07/02 02:34:49;;;;;;;12.55;9.32;;;16.50;99.90;;;;;;5075860;28;20178;-91
2021/07/02 02:37:15;;;;;;;15.63;9.63;;;16.40;99.90;;;;;;5075910;28;20163;-92
2021/07/02 02:39:41;;;;;;;11.63;8.88;;;16.20;99.90;;;;;;5060125;28;20162;-92
2021/07/02 02:42:07;;;;;;;16.15;8.73;;;16.20;99.90;;;;;;5078257;28;20178;-92
2021/07/02 02:44:32;;;;;;;14.48;9.38;;;16.20;99.90;;;;;;5078143;28;20256;-92
2021/07/02 02:46:58;;;;;;;15.20;9.02;;;16.10;99.90;;;;;;5095748;28;20173;-92
2021/07/02 02:49:24;;;;;;;13.35;9.43;;;16.20;99.90;;;;;;5078036;28;20197;-92
2021/07/02 02:51:51;;;;;;;12.90;9.70;;;16.20;99.90;;;;;;5096087;28;20166;-92
2021/07/02 02:54:17;;;;;;;15.15;9.98;;;16.30;99.90;;;;;;5061217;28;20236;-92
2021/07/02 02:59:27;;;;;;;20.88;8.85;;;16.20;99.90;;;;;;5095905;28;20253;-91
2021/07/02 03:01:53;;;;;;;16.20;10.13;;;16.20;99.90;;;;;;5078083;28;20206;-93
2021/07/02 03:04:19;;;;;;;22.10;8.65;;;16.10;99.90;;;;;;5095784;28;20170;-91
2021/07/02 03:06:44;;;;;;;27.30;9.85;;;16.00;99.90;;;;;;5077776;28;20223;-91
2021/07/02 03:09:10;;;;;;;21.08;10.75;;;15.90;99.90;;;;;;5077655;28;20235;-92
2021/07/02 03:11:36;;;;;;;19.42;9.60;;;15.90;99.90;;;;;;5044626;28;20246;-93
2021/07/02 03:14:01;;;;;;;15.80;9.55;;;15.90;99.90;;;;;;5061349;28;20181;-93
2021/07/02 03:16:27;;;;;;;21.83;9.55;;;15.90;99.90;;;;;;5077341;28;20172;-92
2021/07/02 03:18:53;;;;;;;12.75;9.18;;;15.90;99.90;;;;;;5059322;28;20202;-92
2021/07/02 03:21:18;;;;;;;15.25;8.80;;;15.80;99.90;;;;;;5056672;28;20508;-92
2021/07/02 03:23:44;;;;;;;15.52;9.85;;;15.80;99.90;;;;;;5095794;28;20174;-92
2021/07/02 03:26:10;;;;;;;19.38;9.68;;;15.80;99.90;;;;;;5077644;28;20169;-92
2021/07/02 03:28:36;;;;;;;21.00;9.43;;;15.80;99.90;;;;;;5077638;28;20202;-91
2021/07/02 03:31:02;;;;;;;13.55;9.68;;;15.80;99.90;;;;;;5077459;28;20178;-91
2021/07/02 03:33:28;;;;;;;19.83;9.60;;;15.70;99.90;;;;;;5077726;28;20188;-92
2021/07/02 03:35:54;;;;;;;16.67;9.52;;;15.70;99.90;;;;;;5060868;28;20174;-93
2021/07/02 03:38:20;;;;;;;14.02;8.93;;;15.80;99.90;;;;;;5095591;28;20278;-91
2021/07/02 03:40:45;;;;;;;13.90;9.50;;;15.80;99.90;;;;;;5077782;28;20577;-92
2021/07/02 03:43:11;;;;;;;22.88;9.45;;;15.80;99.90;;;;;;5077424;28;20268;-92
2021/07/02 03:45:37;;;;;;;10.88;9.18;;;15.70;99.90;;;;;;5077076;28;20178;-91
2021/07/02 03:48:03;;;;;;;11.88;9.35;;;15.70;99.90;;;;;;5065575;28;20170;-92
2021/07/02 03:50:28;;;;;;;17.92;10.38;;;15.60;99.90;;;;;;5056466;28;20167;-92
2021/07/02 03:52:54;;;;;;;13.68;8.60;;;15.60;99.90;;;;;;5039974;28;20246;-92
2021/07/02 03:55:20;;;;;;;12.15;9.02;;;15.60;99.90;;;;;;5090249;28;20270;-92
2021/07/02 03:57:46;;;;;;;20.73;9.82;;;15.60;99.90;;;;;;5074430;28;20173;-92
2021/07/02 04:00:12;;;;;;;15.07;9.00;;;15.60;99.90;;;;;;5084264;28;20256;-92
2021/07/02 04:02:38;;;;;;;15.18;8.77;;;15.50;99.90;;;;;;5094812;28;20178;-91
2021/07/02 04:05:04;;;;;;;27.60;9.00;;;15.40;99.90;;;;;;5076611;28;20220;-93
2021/07/02 04:07:30;;;;;;;25.17;9.13;;;15.30;99.90;;;;;;5076743;28;20240;-91
2021/07/02 04:09:56;;;;;;;17.27;9.38;;;15.20;99.90;;;;;;5076573;28;20185;-92
2021/07/02 04:12:22;;;;;;;15.70;9.60;;;15.20;99.90;;;;;;5076488;28;20181;-91
2021/07/02 04:14:48;;;;;;;17.13;9.77;;;15.20;99.90;;;;;;5059795;28;20260;-92
2021/07/02 04:17:13;;;;;;;15.40;9.13;;;15.20;99.90;;;;;;5076472;28;20213;-93
2021/07/02 04:19:39;;;;;;;13.30;9.13;;;15.20;99.90;;;;;;5076433;28;20170;-92
2021/07/02 04:22:05;;;;;;;18.90;8.57;;;15.30;99.90;;;;;;5076485;28;20220;-91
2021/07/02 04:24:31;;;;;;;12.02;8.82;;;15.30;99.90;;;;;;5076398;28;20177;-91
2021/07/02 04:26:57;;;;;;;19.55;9.05;;;15.30;99.90;;;;;;5076485;28;20158;-92
2021/07/02 04:29:24;;;;;;;12.68;8.40;;;15.40;99.90;;;;;;5076427;28;20284;-93
2021/07/02 04:31:50;;;;;;;14.85;9.23;;;15.50;99.90;;;;;;5076244;28;20519;-92
2021/07/02 04:34:16;;;;;;;13.63;9.00;;;15.60;99.90;;;;;;5076208;28;20622;-92
2021/07/02 04:36:42;;;;;;;15.98;8.90;;;15.80;99.90;;;;;;5077193;28;20166;-92
2021/07/02 04:39:08;;;;;;;17.00;8.80;;;16.00;99.90;;;;;;5076392;28;20189;-92
2021/07/02 04:41:34;;;;;;;13.73;8.02;;;16.20;99.90;;;;;;5076442;28;20163;-93
2021/07/02 04:43:59;;;;;;;11.85;7.68;;;16.30;99.90;;;;;;5094262;28;20167;-91
2021/07/02 04:46:25;;;;;;;21.17;8.43;;;16.50;99.90;;;;;;5076268;28;20166;-92
2021/07/02 04:48:51;;;;;;;11.55;8.43;;;16.80;99.90;;;;;;5058842;28;20213;-92
2021/07/02 04:51:16;;;;;;;13.73;6.93;;;17.50;99.90;;;;;;5076471;28;20166;-92
2021/07/02 04:53:45;;;;;;;12.13;6.55;;;18.30;99.90;;;;;;5076509;28;20538;-93
2021/07/02 04:56:12;;;;;;;9.70;6.82;;;19.50;99.90;;;;;;5076099;28;20170;-93
2021/07/02 04:58:43;;;;;;;10.30;6.15;;;20.80;99.90;;;;;;5059515;28;20326;-93
2021/07/02 05:01:09;;;;;;;11.05;5.78;;;21.90;99.90;;;;;;5093959;28;20190;-95
2021/07/02 05:03:35;;;;;;;11.43;6.15;;;22.90;99.90;;;;;;5097389;28;20611;-92
2021/07/02 05:06:06;;;;;;;11.85;5.25;;;23.80;99.90;;;;;;5079704;28;20169;-94
2021/07/02 05:08:32;;;;;;;9.77;5.10;;;24.60;99.90;;;;;;5079527;28;20205;-93
2021/07/02 05:10:58;;;;;;;12.48;5.30;;;25.30;99.90;;;;;;5062915;28;20181;-94
2021/07/02 05:13:24;;;;;;;10.70;5.35;;;26.10;99.90;;;;;;5079598;28;20173;-95
2021/07/02 05:15:52;;;;;;;9.35;5.28;;;26.80;99.90;;;;;;5079454;28;20186;-95
2021/07/02 05:18:18;;;;;;;8.32;5.22;;;27.40;99.90;;;;;;5097059;28;20253;-94
2021/07/02 05:20:45;;;;;;;11.75;5.95;;;27.80;99.90;;;;;;5079517;28;20174;-94
2021/07/02 05:23:12;;;;;;;14.60;5.03;;;28.30;99.90;;;;;;5079452;28;20261;-94
2021/07/02 05:25:38;;;;;;;7.05;5.38;;;28.80;99.90;;;;;;5062830;28;20236;-96
2021/07/02 05:28:04;;;;;;;16.20;6.05;;;29.30;99.90;;;;;;5079548;28;20158;-95
2021/07/02 05:30:31;;;;;;;10.50;6.10;;;29.70;99.90;;;;;;5079228;28;20588;-95
2021/07/02 05:32:57;;;;;;;12.05;5.70;;;30.10;99.90;;;;;;5079447;28;20170;-95
2021/07/02 05:35:22;;;;;;;15.63;6.00;;;30.50;99.90;;;;;;5062706;28;20239;-95
2021/07/02 05:37:48;;;;;;;15.38;5.22;;;30.90;99.90;;;;;;5079547;28;20611;-96
2021/07/02 05:40:19;;;;;;;7.82;5.30;;;31.20;99.90;;;;;;5080516;28;20177;-96
2021/07/02 05:42:45;;;;;;;14.60;5.60;;;31.50;99.90;;;;;;5063313;28;20174;-96
2021/07/02 05:45:12;;;;;;;7.32;5.63;;;31.90;99.90;;;;;;5080326;28;20173;-96
2021/07/02 05:47:50;;;;;;;7.80;5.75;;;32.20;99.90;;;;;;5072868;28;20166;-96
2021/07/02 05:50:19;;;;;;;9.68;6.15;;;32.10;99.90;;;;;;5063130;28;20254;-96
2021/07/02 05:52:47;;;;;;;7.85;5.50;;;32.20;99.90;;;;;;5067386;28;20672;-96
2021/07/02 05:55:13;;;;;;;8.00;5.75;;;31.90;99.90;;;;;;5080481;28;20166;-96
2021/07/02 05:57:42;;;;;;;10.60;5.75;;;31.60;99.90;;;;;;5060739;28;20177;-96
2021/07/02 06:00:09;;;;;;;9.27;5.82;;;31.90;99.90;;;;;;5073847;28;20193;-96
2021/07/02 06:02:35;;;;;;;11.15;6.28;;;32.30;99.90;;;;;;5085127;28;20185;-96
2021/07/02 06:05:00;;;;;;;13.18;5.90;;;32.30;99.90;;;;;;5083033;28;20173;-96
2021/07/02 06:07:26;;;;;;;7.00;6.32;;;32.60;99.90;;;;;;5086261;28;20187;-96
2021/07/02 06:09:52;;;;;;;12.00;7.05;;;33.20;99.90;;;;;;5092345;28;20166;-96
2021/07/02 06:12:18;;;;;;;11.38;6.60;;;33.60;99.90;;;;;;5113982;28;20188;-96
2021/07/02 06:14:43;;;;;;;10.95;6.93;;;33.60;99.70;;;;;;5070343;28;20181;-96
2021/07/02 06:17:09;;;;;;;8.98;6.40;;;33.60;99.30;;;;;;5078420;28;20165;-96
2021/07/02 06:19:35;;;;;;;10.65;6.97;;;33.90;99.60;;;;;;5067773;28;20198;-96
2021/07/02 06:22:04;;;;;;;10.05;7.07;;;34.00;98.30;;;;;;5072576;28;20166;-96
2021/07/02 06:24:30;;;;;;;10.38;7.28;;;34.30;98.50;;;;;;5071634;28;20174;-96
2021/07/02 06:26:56;;;;;;;13.05;7.50;;;34.40;97.60;;;;;;5065812;28;20232;-96
2021/07/02 06:29:22;;;;;;;16.33;7.35;;;34.60;97.70;;;;;;5089306;28;20530;-95
2021/07/02 06:31:47;;;;;;;8.77;7.28;;;34.80;97.00;;;;;;5069195;28;20186;-94
2021/07/02 06:34:13;;;;;;;8.13;7.13;;;35.00;96.60;;;;;;5092051;28;20561;-96
2021/07/02 06:36:41;;;;;;;8.00;7.20;;;35.20;96.10;;;;;;5094915;28;20158;-95
2021/07/02 06:39:07;;;;;;;8.60;6.65;;;35.10;96.60;;;;;;5078375;28;20190;-96
2021/07/02 06:41:33;;;;;;;13.80;7.50;;;35.20;96.40;;;;;;5090509;22;20775;-84
2021/07/02 06:43:58;;;;;;;9.00;6.55;;;35.00;96.20;;;;;;5073751;28;20286;-84
2021/07/02 06:46:24;;;;;;;12.48;7.43;;;34.80;96.70;;;;;;5073336;28;20158;-83
2021/07/02 06:48:50;;;;;;;10.00;6.80;;;35.20;96.30;;;;;;5056762;28;20177;-84
2021/07/02 06:51:15;;;;;;;15.73;7.35;;;35.50;96.30;;;;;;5057020;28;20166;-84
2021/07/02 06:53:41;;;;;;;10.13;7.65;;;35.90;94.90;;;;;;5074612;28;20169;-83
2021/07/02 06:56:08;;;;;;;13.45;7.85;;;36.10;94.50;;;;;;5074695;28;20162;-84
2021/07/02 06:58:34;;;;;;;13.15;9.07;;;36.70;94.50;;;;;;5073023;28;20538;-84
2021/07/02 07:00:59;;;;;;;10.82;9.02;;;37.10;94.70;;;;;;5073587;28;20529;-84
2021/07/02 07:03:25;;;;;;;10.68;9.57;;;38.20;93.00;;;;;;5056898;28;20590;-84
2021/07/02 07:05:52;;;;;;;8.98;8.05;;;38.70;91.30;;;;;;5074899;28;20172;-84
2021/07/02 07:08:18;;;;;;;10.57;8.52;;;38.90;90.60;;;;;;5077624;28;20169;-85
2021/07/02 07:10:43;;;;;;;10.38;7.97;;;39.30;90.90;;;;;;5081494;28;20162;-85
2021/07/02 07:13:09;;;;;;;12.27;9.20;;;39.90;90.20;;;;;;5080983;28;20250;-85
2021/07/02 07:15:36;;;;;;;15.13;8.48;;;40.00;89.40;;;;;;5080720;28;20196;-85
2021/07/02 07:18:02;;;;;;;11.65;9.15;;;39.50;87.90;;;;;;5055950;28;20163;-85
2021/07/02 07:20:28;;;;;;;15.65;9.32;;;37.80;90.00;;;;;;5073604;28;20535;-85
2021/07/02 07:22:54;;;;;;;18.70;9.32;;;36.30;91.50;;;;;;5072975;28;20180;-85
2021/07/02 07:25:21;;;;;;;18.27;9.55;;;35.40;92.40;;;;;;5073890;28;20174;-85
2021/07/02 07:27:47;;;;;;;16.52;10.90;;;34.20;93.60;;;;;;5091924;28;20150;-85
2021/07/02 07:30:14;;;;;;;15.18;11.10;;;33.50;94.60;;;;;;5097085;28;20158;-85
2021/07/02 07:32:40;;;;;;;19.05;11.32;;;32.30;95.40;;;;;;5097748;28;20469;-85
2021/07/02 07:35:23;;;;;;;20.02;10.25;;;31.60;97.00;;;;;;5097955;28;20150;-85
2021/07/02 07:37:55;;;;;;;20.65;11.10;;;31.20;97.60;;;;;;5076924;28;20165;-85
2021/07/02 07:40:24;;;;;;;19.83;12.75;;;32.00;97.30;;;;;;5080892;28;20201;-85
2021/07/02 07:42:51;;;;;;;19.50;10.95;;;33.50;95.90;;;;;;5093339;28;20516;-85
2021/07/02 07:45:17;;;;;;;14.65;8.88;;;35.30;94.50;;;;;;5094340;28;20165;-85
2021/07/02 07:47:43;;;;;;;11.32;9.70;;;37.10;92.80;;;;;;5091944;28;20166;-85
2021/07/02 07:50:12;;;;;;;11.98;10.45;;;38.40;92.00;;;;;;5094120;28;20307;-85
2021/07/02 07:52:52;;;;;;;10.35;8.40;;;38.30;90.80;;;;;;5092538;28;20632;-85
2021/07/02 07:55:20;;;;;;;10.95;9.73;;;38.80;90.00;;;;;;5074117;28;20176;-85
2021/07/02 07:57:46;;;;;;;20.45;10.35;;;39.10;89.40;;;;;;5083113;28;20158;-86
2021/07/02 08:00:12;;;;;;;9.68;8.88;;;39.10;87.90;;;;;;5092658;28;20224;-85
2021/07/02 08:02:38;;;;;;;14.93;10.57;;;38.60;89.00;;;;;;5093094;28;20260;-86
2021/07/02 08:05:04;;;;;;;16.58;9.70;;;38.20;88.60;;;;;;5076063;28;20196;-86
2021/07/02 08:07:38;;;;;;;21.13;9.93;;;38.00;90.40;;;;;;5092871;28;20513;-86
2021/07/02 08:10:07;;;;;;;14.95;9.65;;;38.10;90.40;;;;;;5060408;28;20265;-85
2021/07/02 08:12:33;;;;;;;15.10;9.68;;;38.20;89.80;;;;;;5093153;28;20188;-86
2021/07/02 08:14:58;;;;;;;12.90;8.57;;;39.00;86.50;;;;;;5101108;28;20168;-86
2021/07/02 08:17:28;;;;;;;15.52;8.68;;;38.50;87.70;;;;;;5102067;28;20164;-86
2021/07/02 08:19:55;;;;;;;13.07;8.10;;;38.20;88.20;;;;;;5098281;28;20641;-86
2021/07/02 08:22:21;;;;;;;10.93;8.18;;;38.20;88.20;;;;;;5101486;28;20173;-85
2021/07/02 08:24:47;;;;;;;9.38;7.90;;;39.30;84.90;;;;;;5094451;28;20257;-85
2021/07/02 08:27:13;;;;;;;15.35;7.38;;;39.90;85.50;;;;;;5076746;28;20240;-86
2021/07/02 08:29:38;;;;;;;12.05;7.47;;;40.90;83.30;;;;;;5094514;28;20172;-86
2021/07/02 08:32:04;;;;;;;7.07;6.25;;;40.60;81.70;;;;;;5076083;28;20643;-86
2021/07/02 08:34:30;;;;;;;13.63;6.63;;;40.40;82.60;;;;;;5092914;28;20711;-86
2021/07/02 08:36:55;;;;;;;12.57;5.78;;;40.20;81.30;;;;;;5093108;28;20181;-85
2021/07/02 08:39:21;;;;;;;12.52;6.90;;;40.80;77.70;;;;;;5096553;28;20185;-86
2021/07/02 08:41:47;;;;;;;9.70;6.10;;;41.20;77.80;;;;;;5096800;28;20644;-85
2021/07/02 08:44:13;;;;;;;9.80;4.50;;;42.20;77.50;;;;;;5096566;28;20164;-86
2021/07/02 08:46:39;;;;;;;9.40;4.50;;;42.50;73.90;;;;;;5097784;28;20183;-84
2021/07/02 08:49:05;;;;;;;8.32;4.65;;;43.10;71.20;;;;;;5095913;28;20323;-84
2021/07/02 08:51:32;;;;;;;12.55;5.13;;;43.90;68.80;;;;;;5094721;28;20244;-85
2021/07/02 08:53:59;;;;;;;5.97;3.85;;;43.40;68.70;;;;;;5112491;28;20620;-86
2021/07/02 08:56:25;;;;;;;7.88;4.05;;;42.10;70.00;;;;;;5096804;28;20272;-85
2021/07/02 08:58:50;;;;;;;10.95;5.25;;;41.50;70.90;;;;;;5095982;28;20193;-86
2021/07/02 09:01:35;;;;;;;9.40;4.07;;;42.30;69.70;;;;;;5095856;28;20617;-85
2021/07/02 09:04:29;;;;;;;6.75;3.42;;;42.50;70.50;;;;;;5098449;28;20157;-86
2021/07/02 09:07:24;;;;;;;4.35;3.60;;;41.30;70.50;;;;;;5095886;28;20154;-85
2021/07/02 09:10:00;;;;;;;8.00;4.38;;;41.80;70.30;;;;;;5058285;28;20197;-85
2021/07/02 09:12:35;;;;;;;6.72;3.70;;;42.00;68.60;;;;;;5076081;28;20166;-85
2021/07/02 09:15:08;;;;;;;7.53;4.47;;;42.30;69.70;;;;;;5075473;28;20182;-85
2021/07/02 09:17:49;;;;;;;10.68;4.43;;;41.90;70.00;;;;;;5086865;28;20193;-85
2021/07/02 09:20:19;;;;;;;8.40;4.30;;;42.50;71.40;;;;;;5096791;28;20522;-85
2021/07/02 09:22:50;;;;;;;8.50;3.67;;;42.90;69.90;;;;;;5096783;28;20206;-85
2021/07/02 09:25:23;;;;;;;7.75;4.70;;;42.30;69.50;;;;;;5095958;28;20162;-85
2021/07/02 09:27:51;;;;;;;6.57;4.72;;;41.40;71.70;;;;;;5095307;28;20165;-85
2021/07/02 09:30:22;;;;;;;8.43;5.20;;;41.70;71.00;;;;;;5079159;28;20180;-85
2021/07/02 09:32:50;;;;;;;9.93;4.82;;;42.10;70.00;;;;;;5095439;28;20162;-85
2021/07/02 09:35:17;;;;;;;10.52;4.72;;;41.80;72.00;;;;;;5095363;28;20157;-85
2021/07/02 09:37:56;;;;;;;7.32;4.63;;;42.70;68.30;;;;;;5108026;28;20351;-86
2021/07/02 09:40:28;;;;;;;8.02;5.18;;;41.20;69.00;;;;;;5119875;28;20239;-85
2021/07/02 09:43:15;;;;;;;6.07;4.93;;;38.40;73.30;;;;;;5119667;28;20176;-85
2021/07/02 09:45:49;;;;;;;6.32;5.53;;;36.30;76.10;;;;;;5103752;28;20193;-85
2021/07/02 09:48:18;;;;;;;8.65;5.65;;;37.10;75.80;;;;;;5094377;28;20173;-85
2021/07/02 09:50:56;;;;;;;6.95;5.20;;;39.50;74.70;;;;;;5095165;28;20196;-85
2021/07/02 09:53:25;;;;;;;14.30;5.85;;;40.20;73.70;;;;;;5096686;28;20215;-86
2021/07/02 09:55:56;;;;;;;12.02;5.18;;;40.10;71.60;;;;;;5110023;28;20185;-85
2021/07/02 09:58:24;;;;;;;6.70;5.13;;;37.90;73.20;;;;;;5119317;28;20233;-85
2021/07/02 10:01:00;;;;;;;11.13;5.63;;;35.70;77.80;;;;;;5119119;28;20146;-85
2021/07/02 10:03:37;;;;;;;8.68;5.60;;;34.20;81.80;;;;;;5063050;28;20189;-84
2021/07/02 10:06:29;;;;;;;6.80;5.63;;;35.70;78.90;;;;;;5096910;28;20146;-85
2021/07/02 10:08:55;;;;;;;8.05;5.00;;;38.70;74.30;;;;;;5075594;28;20274;-84
2021/07/02 10:11:23;;;;;;;6.80;5.07;;;38.20;75.30;;;;;;5080448;28;20174;-85
2021/07/02 10:13:49;;;;;;;10.23;5.85;;;36.10;75.60;;;;;;5099627;28;20161;-85
2021/07/02 10:16:15;;;;;;;7.78;4.78;;;34.20;78.60;;;;;;5082264;28;20519;-85
2021/07/02 10:18:57;;;;;;;7.70;4.47;;;33.70;83.10;;;;;;5098586;28;20181;-84
2021/07/02 10:21:24;;;;;;;9.80;4.88;;;33.60;82.60;;;;;;5094319;28;20624;-84
2021/07/02 10:23:54;;;;;;;6.05;4.70;;;33.10;82.80;;;;;;5094428;28;20162;-84
2021/07/02 10:26:22;;;;;;;5.72;5.05;;;32.00;84.70;;;;;;5094399;28;20684;-84
2021/07/02 10:28:48;;;;;;;6.45;4.38;;;33.70;84.10;;;;;;5094068;28;20176;-85
2021/07/02 10:31:17;;;;;;;18.75;5.63;;;37.20;82.30;;;;;;5093917;28;20157;-84
2021/07/02 10:33:50;;;;;;;9.80;5.35;;;37.30;75.70;;;;;;5094085;28;20170;-84
2021/07/02 10:36:18;;;;;;;7.78;5.35;;;37.30;76.90;;;;;;5095616;28;20142;-84
2021/07/02 10:38:48;;;;;;;7.63;4.57;;;35.60;79.50;;;;;;5093931;28;20197;-84
2021/07/02 10:41:20;;;;;;;9.32;5.78;;;34.50;81.40;;;;;;5093512;28;20507;-84
2021/07/02 10:44:07;;;;;;;10.98;5.18;;;36.20;79.00;;;;;;5094019;28;20199;-85
2021/07/02 10:46:37;;;;;;;4.75;4.28;;;36.90;78.10;;;;;;5094251;28;20211;-85
2021/07/02 10:49:13;;;;;;;4.30;3.83;;;37.70;77.50;;;;;;5093736;28;20578;-84
2021/07/02 10:51:44;;;;;;;8.45;3.25;;;39.90;73.20;;;;;;5093668;28;20169;-84
2021/07/02 10:54:20;;;;;;;7.68;4.18;;;40.20;73.30;;;;;;5095288;28;20166;-83
2021/07/02 10:57:01;;;;;;;7.70;4.90;;;40.00;72.10;;;;;;5093770;28;20511;-84
2021/07/02 10:59:40;;;;;;;4.07;3.72;;;39.00;72.20;;;;;;5094179;28;20189;-84
2021/07/02 11:02:06;;;;;;;6.53;4.72;;;37.10;75.40;;;;;;5093393;28;20226;-84
2021/07/02 11:04:33;;;;;;;10.63;4.38;;;35.70;77.00;;;;;;5093550;28;20165;-84
2021/07/02 11:06:59;;;;;;;6.13;4.15;;;36.80;75.40;;;;;;5076818;28;20265;-84
2021/07/02 11:09:50;;;;;;;8.23;4.22;;;38.60;72.50;;;;;;5093190;28;20675;-84
2021/07/02 11:12:17;;;;;;;4.75;3.53;;;38.80;73.00;;;;;;5093307;28;20181;-84
2021/07/02 11:14:52;;;;;;;6.60;4.45;;;40.40;72.40;;;;;;5093313;28;20256;-84
2021/07/02 11:17:35;;;;;;;5.07;3.85;;;40.30;69.60;;;;;;5094776;28;20161;-84
2021/07/02 11:20:10;;;;;;;6.43;3.92;;;40.80;69.40;;;;;;5092230;28;20201;-84
2021/07/02 11:23:01;;;;;;;5.68;3.33;;;41.80;67.80;;;;;;5093904;28;20164;-84
2021/07/02 11:25:46;;;;;;;5.28;3.65;;;42.00;64.30;;;;;;5093099;28;20256;-84
2021/07/02 11:28:22;;;;;;;4.32;3.80;;;42.20;63.40;;;;;;5093366;28;20613;-85
2021/07/02 11:30:48;;;;;;;5.45;3.47;;;42.70;64.20;;;;;;5092933;28;20169;-84
2021/07/02 11:33:19;;;;;;;5.80;3.65;;;43.10;67.50;;;;;;5092608;28;20177;-85
2021/07/02 11:36:05;;;;;;;4.55;3.80;;;43.70;65.00;;;;;;5092999;28;20165;-83
2021/07/02 11:38:31;;;;;;;19.10;3.90;;;43.00;62.80;;;;;;5094490;28;20145;-84
2021/07/02 11:40:58;;;;;;;5.13;3.85;;;42.60;63.90;;;;;;5092217;28;20193;-84
2021/07/02 11:43:35;;;;;;;6.05;3.80;;;40.00;69.00;;;;;;5093686;28;20242;-84
2021/07/02 11:46:16;;;;;;;7.43;4.40;;;38.10;73.20;;;;;;5092912;28;20165;-84
2021/07/02 11:48:50;;;;;;;6.13;4.47;;;37.10;75.40;;;;;;5099440;28;20219;-84
2021/07/02 11:51:19;;;;;;;7.05;4.45;;;36.30;74.60;;;;;;5096112;28;20165;-84
2021/07/02 11:53:47;;;;;;;8.18;4.75;;;34.70;75.10;;;;;;5092575;28;20512;-84
2021/07/02 11:56:14;;;;;;;14.25;4.50;;;32.80;77.00;;;;;;5094095;28;20157;-84
2021/07/02 11:58:42;;;;;;;9.02;4.90;;;31.80;82.50;;;;;;5092691;28;20162;-84
2021/07/02 12:01:16;;;;;;;9.23;5.07;;;32.40;80.40;;;;;;5092819;28;20606;-84
2021/07/02 12:03:49;;;;;;;5.35;4.35;;;32.60;78.80;;;;;;5092595;28;20260;-84
2021/07/02 12:06:28;;;;;;;5.97;4.18;;;34.50;77.90;;;;;;5102324;28;20157;-84
2021/07/02 12:08:56;;;;;;;8.75;4.18;;;36.40;73.50;;;;;;5117693;28;20150;-84
2021/07/02 12:11:31;;;;;;;7.40;4.57;;;37.20;72.70;;;;;;5120121;28;20173;-83
2021/07/02 12:13:57;;;;;;;7.10;3.95;;;37.30;73.80;;;;;;5115570;28;20173;-84
2021/07/02 12:16:31;;;;;;;5.90;4.15;;;37.70;74.90;;;;;;5100672;28;20248;-84
2021/07/02 12:18:57;;;;;;;5.50;3.63;;;37.60;74.20;;;;;;5099267;28;20189;-84
2021/07/02 12:21:29;;;;;;;7.22;3.60;;;38.30;73.70;;;;;;5105530;28;20237;-84
2021/07/02 12:23:57;;;;;;;5.68;3.80;;;37.50;75.00;;;;;;5105179;28;20174;-84
2021/07/02 12:26:26;;;;;;;7.05;3.95;;;35.60;75.60;;;;;;5124211;28;20149;-84
2021/07/02 12:29:05;;;;;;;5.32;4.20;;;33.60;77.40;;;;;;5123876;28;20163;-85
2021/07/02 12:31:46;;;;;;;9.93;3.80;;;32.50;78.20;;;;;;5106906;28;20520;-84
2021/07/02 12:34:33;;;;;;;8.07;4.50;;;31.90;82.50;;;;;;5100151;28;20196;-85
2021/07/02 12:37:02;;;;;;;7.32;4.00;;;31.30;82.80;;;;;;5098946;28;20169;-85
2021/07/02 12:39:33;;;;;;;8.18;3.97;;;30.70;83.50;;;;;;5098923;28;20189;-85
2021/07/02 12:42:00;;;;;;;7.40;4.25;;;30.00;87.90;;;;;;5099079;28;20272;-84
2021/07/02 12:44:28;;;;;;;7.57;4.05;;;29.40;90.50;;;;;;5098733;28;20200;-85
2021/07/02 12:46:54;;;;;;;6.00;4.13;;;29.00;90.30;;;;;;5098963;28;20675;-85
2021/07/02 12:49:29;;;;;;;4.40;4.00;;;28.80;90.50;;;;;;5099159;28;20197;-85